createdAt,value
2023-03-22T00:00:30.178Z,6.90
2023-03-22T00:02:57.126Z,6.90
2023-03-22T00:05:24.154Z,6.80
2023-03-22T00:07:54.054Z,6.70
2023-03-22T00:10:21.082Z,6.90
2023-03-22T00:12:47.691Z,6.90
2023-03-22T00:15:15.424Z,6.70
2023-03-22T00:17:42.071Z,6.70
2023-03-22T00:20:09.209Z,6.80
2023-03-22T00:22:36.027Z,6.70
2023-03-22T00:25:02.829Z,6.70
2023-03-22T00:27:29.469Z,6.60
2023-03-22T00:29:56.141Z,6.50
2023-03-22T00:32:22.759Z,6.50
2023-03-22T00:34:49.748Z,6.60
2023-03-22T00:37:16.731Z,6.50
2023-03-22T00:39:43.613Z,6.50
2023-03-22T00:42:10.457Z,6.60
2023-03-22T00:44:37.175Z,6.60
2023-03-22T00:47:03.980Z,6.50
2023-03-22T00:49:31.277Z,6.40
2023-03-22T00:51:57.917Z,6.50
2023-03-22T00:54:24.655Z,6.60
2023-03-22T00:56:51.409Z,6.50
2023-03-22T00:59:18.069Z,6.50
2023-03-22T01:01:44.828Z,6.60
2023-03-22T01:04:17.795Z,6.60
2023-03-22T01:06:44.695Z,6.60
2023-03-22T01:09:15.053Z,6.70
2023-03-22T01:11:43.650Z,6.70
2023-03-22T01:14:10.503Z,6.80
2023-03-22T01:16:37.473Z,6.70
2023-03-22T01:19:04.213Z,6.80
2023-03-22T01:21:31.566Z,6.80
2023-03-22T01:23:58.296Z,6.80
2023-03-22T01:26:25.158Z,6.90
2023-03-22T01:28:51.797Z,7.00
2023-03-22T01:31:18.556Z,6.80
2023-03-22T01:33:45.320Z,6.90
2023-03-22T01:36:12.062Z,7.00
2023-03-22T01:38:38.792Z,7.00
2023-03-22T01:41:05.782Z,7.00
2023-03-22T01:43:32.454Z,7.00
2023-03-22T01:45:59.344Z,7.00
2023-03-22T01:48:34.755Z,6.90
2023-03-22T01:51:10.316Z,7.00
2023-03-22T01:53:41.707Z,7.00
2023-03-22T01:56:09.486Z,7.10
2023-03-22T01:58:38.038Z,7.10
2023-03-22T02:01:07.056Z,7.10
2023-03-22T02:03:41.386Z,7.00
2023-03-22T02:06:08.718Z,7.00
2023-03-22T02:08:35.385Z,7.10
2023-03-22T02:11:04.246Z,7.10
2023-03-22T02:13:47.783Z,7.20
2023-03-22T02:16:44.155Z,7.20
2023-03-22T02:19:33.917Z,7.20
2023-03-22T02:22:25.875Z,7.20
2023-03-22T02:25:12.817Z,7.10
2023-03-22T02:28:08.037Z,7.10
2023-03-22T02:30:59.602Z,7.10
2023-03-22T02:33:49.220Z,7.10
2023-03-22T02:36:31.185Z,7.00
2023-03-22T02:39:36.768Z,7.10
2023-03-22T02:42:28.431Z,6.90
2023-03-22T02:45:14.214Z,7.10
2023-03-22T02:47:54.157Z,7.00
2023-03-22T02:50:51.732Z,7.20
2023-03-22T02:53:30.181Z,7.20
2023-03-22T02:56:02.340Z,7.10
2023-03-22T02:58:34.900Z,7.20
2023-03-22T03:01:06.790Z,7.20
2023-03-22T03:03:37.692Z,7.20
2023-03-22T03:06:12.548Z,7.20
2023-03-22T03:08:40.214Z,7.20
2023-03-22T03:11:07.407Z,7.20
2023-03-22T03:13:34.091Z,7.20
2023-03-22T03:16:02.436Z,7.20
2023-03-22T03:18:35.682Z,7.30
2023-03-22T03:21:10.183Z,7.30
2023-03-22T03:23:36.773Z,7.30
2023-03-22T03:26:12.397Z,7.30
2023-03-22T03:28:49.688Z,7.30
2023-03-22T03:31:35.056Z,7.20
2023-03-22T03:34:13.391Z,7.20
2023-03-22T03:36:46.978Z,7.20
2023-03-22T03:39:16.413Z,7.20
2023-03-22T03:41:46.451Z,7.20
2023-03-22T03:44:14.463Z,7.30
2023-03-22T03:46:42.104Z,7.30
2023-03-22T03:49:10.126Z,7.40
2023-03-22T03:51:50.393Z,7.40
2023-03-22T03:54:17.667Z,7.20
2023-03-22T03:56:44.415Z,7.10
2023-03-22T03:59:11.045Z,7.20
2023-03-22T04:01:37.786Z,7.30
2023-03-22T04:04:04.436Z,7.30
2023-03-22T04:06:34.556Z,7.30
2023-03-22T04:09:01.765Z,7.40
2023-03-22T04:11:28.510Z,7.40
2023-03-22T04:13:55.251Z,7.40
2023-03-22T04:16:21.960Z,7.40
2023-03-22T04:18:48.631Z,7.40
2023-03-22T04:21:16.482Z,7.30
2023-03-22T04:23:46.686Z,7.40
2023-03-22T04:26:13.822Z,7.40
2023-03-22T04:28:40.696Z,7.40
2023-03-22T04:31:08.563Z,7.30
2023-03-22T04:33:39.430Z,7.40
2023-03-22T04:36:10.245Z,7.30
2023-03-22T04:38:39.516Z,7.20
2023-03-22T04:41:06.691Z,7.30
2023-03-22T04:43:34.823Z,7.20
2023-03-22T04:46:02.260Z,7.20
2023-03-22T04:48:29.602Z,7.30
2023-03-22T04:50:57.094Z,7.20
2023-03-22T04:53:27.474Z,7.20
2023-03-22T04:55:57.993Z,7.10
2023-03-22T04:58:25.964Z,7.00
2023-03-22T05:00:53.521Z,7.00
2023-03-22T05:03:21.467Z,6.90
2023-03-22T05:05:56.194Z,7.00
2023-03-22T05:08:26.998Z,6.90
2023-03-22T05:10:55.344Z,6.90
2023-03-22T05:13:24.078Z,7.00
2023-03-22T05:15:51.806Z,6.90
2023-03-22T05:18:24.624Z,6.90
2023-03-22T05:20:51.250Z,6.90
2023-03-22T05:23:21.591Z,6.80
2023-03-22T05:25:49.450Z,6.80
2023-03-22T05:28:19.618Z,6.60
2023-03-22T05:30:46.595Z,6.60
2023-03-22T05:33:14.250Z,6.40
2023-03-22T05:35:41.931Z,6.50
2023-03-22T05:38:09.849Z,6.60
2023-03-22T05:40:36.735Z,6.60
2023-03-22T05:43:03.443Z,6.70
2023-03-22T05:45:31.646Z,6.80
2023-03-22T05:47:58.792Z,6.80
2023-03-22T05:50:25.536Z,6.90
2023-03-22T05:52:52.617Z,6.90
2023-03-22T05:55:20.340Z,7.00
2023-03-22T05:57:47.628Z,7.00
2023-03-22T06:00:16.138Z,7.10
2023-03-22T06:02:44.614Z,7.10
2023-03-22T06:05:11.862Z,7.00
2023-03-22T06:07:39.281Z,7.00
2023-03-22T06:10:07.196Z,7.10
2023-03-22T06:12:34.259Z,7.10
2023-03-22T06:15:01.104Z,7.10
2023-03-22T06:17:27.810Z,7.20
2023-03-22T06:19:54.799Z,7.30
2023-03-22T06:22:22.577Z,7.30
2023-03-22T06:24:49.943Z,7.40
2023-03-22T06:27:17.827Z,7.40
2023-03-22T06:29:45.164Z,7.40
2023-03-22T06:32:11.903Z,7.50
2023-03-22T06:34:38.565Z,7.50
2023-03-22T06:37:05.667Z,7.60
2023-03-22T06:39:32.330Z,7.60
2023-03-22T06:41:58.966Z,7.70
2023-03-22T06:44:25.652Z,7.70
2023-03-22T06:46:52.361Z,7.80
2023-03-22T06:49:19.576Z,7.80
2023-03-22T06:51:46.249Z,7.80
2023-03-22T06:54:14.238Z,7.90
2023-03-22T06:56:40.914Z,8.00
2023-03-22T06:59:07.578Z,8.00
2023-03-22T07:01:34.285Z,8.10
2023-03-22T07:04:01.152Z,8.30
2023-03-22T07:06:28.827Z,8.30
2023-03-22T07:08:55.457Z,8.40
2023-03-22T07:11:22.132Z,8.50
2023-03-22T07:13:48.978Z,8.50
2023-03-22T07:16:16.692Z,8.70
2023-03-22T07:18:44.414Z,8.80
2023-03-22T07:21:11.302Z,9.00
2023-03-22T07:23:37.926Z,9.00
2023-03-22T07:26:05.211Z,9.10
2023-03-22T07:28:31.909Z,9.40
2023-03-22T07:31:04.004Z,9.70
2023-03-22T07:33:30.801Z,9.80
2023-03-22T07:35:57.493Z,9.80
2023-03-22T07:38:24.328Z,10.10
2023-03-22T07:40:54.875Z,10.20
2023-03-22T07:43:22.162Z,10.20
2023-03-22T07:45:50.520Z,10.40
2023-03-22T07:48:17.911Z,10.60
2023-03-22T07:50:44.716Z,10.50
2023-03-22T07:53:11.850Z,10.50
2023-03-22T07:55:39.363Z,10.60
2023-03-22T07:58:06.220Z,10.60
2023-03-22T08:00:33.432Z,10.90
2023-03-22T08:03:01.130Z,10.90
2023-03-22T08:05:27.896Z,11.90
2023-03-22T08:07:56.851Z,11.90
2023-03-22T08:10:24.019Z,12.10
2023-03-22T08:12:50.843Z,12.60
2023-03-22T08:15:17.604Z,12.80
2023-03-22T08:17:44.286Z,13.10
2023-03-22T08:20:12.817Z,12.80
2023-03-22T08:22:39.485Z,12.90
2023-03-22T08:25:07.184Z,12.30
2023-03-22T08:27:33.890Z,12.20
2023-03-22T08:30:00.870Z,12.10
2023-03-22T08:32:27.722Z,12.20
2023-03-22T08:34:54.364Z,12.30
2023-03-22T08:37:21.069Z,12.20
2023-03-22T08:39:48.378Z,12.20
2023-03-22T08:42:15.424Z,12.20
2023-03-22T08:44:42.093Z,12.20
2023-03-22T08:47:08.752Z,12.20
2023-03-22T08:49:35.615Z,12.30
2023-03-22T08:52:02.436Z,12.50
2023-03-22T08:54:33.457Z,12.40
2023-03-22T08:57:00.661Z,12.30
2023-03-22T08:59:27.866Z,12.40
2023-03-22T09:01:54.570Z,12.40
2023-03-22T09:04:21.304Z,12.60
2023-03-22T09:06:48.091Z,12.60
2023-03-22T09:09:14.821Z,12.80
2023-03-22T09:11:42.744Z,13.00
2023-03-22T09:14:10.381Z,13.10
2023-03-22T09:16:37.830Z,13.20
2023-03-22T09:19:04.776Z,13.10
2023-03-22T09:21:31.439Z,13.20
2023-03-22T09:23:58.098Z,13.10
2023-03-22T09:26:25.611Z,13.10
2023-03-22T09:28:52.493Z,13.10
2023-03-22T09:31:20.712Z,13.40
2023-03-22T09:33:47.691Z,13.30
2023-03-22T09:36:14.418Z,13.50
2023-03-22T09:38:42.048Z,13.90
2023-03-22T09:41:21.309Z,13.90
2023-03-22T09:43:59.779Z,13.90
2023-03-22T09:46:35.899Z,14.00
2023-03-22T09:49:07.618Z,14.30
2023-03-22T09:51:49.401Z,14.20
2023-03-22T09:54:19.411Z,14.20
2023-03-22T09:56:54.660Z,14.20
2023-03-22T09:59:27.598Z,14.10
2023-03-22T10:02:05.155Z,14.10
2023-03-22T10:04:51.132Z,14.30
2023-03-22T10:07:57.899Z,14.30
2023-03-22T10:10:25.518Z,14.70
2023-03-22T10:13:14.703Z,14.60
2023-03-22T10:15:47.601Z,14.80
2023-03-22T10:18:48.219Z,14.90
2023-03-22T10:21:17.315Z,15.00
2023-03-22T10:23:58.834Z,15.10
2023-03-22T10:26:41.399Z,15.00
2023-03-22T10:29:13.320Z,15.00
2023-03-22T10:31:43.766Z,14.60
2023-03-22T10:34:27.986Z,14.50
2023-03-22T10:36:55.694Z,14.50
2023-03-22T10:39:30.424Z,14.40
2023-03-22T10:42:00.979Z,14.50
2023-03-22T10:44:30.220Z,14.50
2023-03-22T10:47:07.119Z,14.40
2023-03-22T10:49:48.297Z,14.40
2023-03-22T10:52:53.650Z,14.50
2023-03-22T10:55:21.962Z,14.50
2023-03-22T10:58:15.953Z,14.60
2023-03-22T11:00:47.286Z,15.00
2023-03-22T11:03:25.331Z,15.30
2023-03-22T11:06:18.914Z,15.50
2023-03-22T11:08:50.762Z,15.40
2023-03-22T11:11:26.051Z,15.70
2023-03-22T11:14:16.832Z,15.50
2023-03-22T11:17:00.882Z,15.70
2023-03-22T11:19:37.800Z,16.10
2023-03-22T11:22:21.776Z,15.90
2023-03-22T11:24:48.670Z,15.70
2023-03-22T11:27:28.041Z,15.60
2023-03-22T11:29:59.094Z,15.50
2023-03-22T11:32:26.940Z,15.60
2023-03-22T11:35:20.465Z,15.70
2023-03-22T11:37:52.416Z,15.80
2023-03-22T11:40:22.448Z,16.10
2023-03-22T11:42:53.657Z,16.10
2023-03-22T11:45:32.178Z,16.10
2023-03-22T11:48:05.845Z,16.20
2023-03-22T11:50:36.849Z,16.20
2023-03-22T11:53:07.012Z,16.30
2023-03-22T11:55:36.642Z,16.30
2023-03-22T11:58:04.454Z,16.30
2023-03-22T12:00:37.198Z,16.40
2023-03-22T12:03:18.057Z,16.20
2023-03-22T12:05:48.935Z,16.20
2023-03-22T12:08:37.029Z,16.10
2023-03-22T12:11:14.441Z,16.50
2023-03-22T12:13:52.520Z,16.90
2023-03-22T12:16:26.524Z,16.80
2023-03-22T12:19:27.061Z,16.70
2023-03-22T12:21:54.982Z,16.90
2023-03-22T12:24:32.481Z,16.80
2023-03-22T12:27:12.250Z,16.90
2023-03-22T12:29:45.551Z,16.90
2023-03-22T12:32:19.374Z,17.10
2023-03-22T12:34:51.082Z,17.20
2023-03-22T12:37:28.022Z,17.30
2023-03-22T12:40:27.436Z,17.00
2023-03-22T12:43:02.326Z,16.90
2023-03-22T12:45:31.696Z,16.80
2023-03-22T12:48:14.287Z,17.10
2023-03-22T12:50:52.403Z,17.10
2023-03-22T12:53:21.200Z,16.90
2023-03-22T12:55:49.687Z,16.80
2023-03-22T12:58:22.051Z,16.90
2023-03-22T13:01:00.303Z,16.90
2023-03-22T13:03:36.291Z,16.80
2023-03-22T13:06:27.337Z,16.90
2023-03-22T13:09:09.082Z,17.00
2023-03-22T13:11:36.411Z,16.80
2023-03-22T13:14:03.112Z,17.00
2023-03-22T13:16:51.036Z,17.10
2023-03-22T13:19:32.262Z,17.30
2023-03-22T13:22:17.710Z,17.40
2023-03-22T13:25:16.827Z,17.50
2023-03-22T13:27:56.824Z,17.70
2023-03-22T13:30:30.145Z,17.70
2023-03-22T13:33:10.500Z,18.00
2023-03-22T13:35:51.006Z,17.80
2023-03-22T13:38:32.464Z,17.80
2023-03-22T13:41:00.722Z,17.70
2023-03-22T13:43:29.525Z,17.30
2023-03-22T13:46:06.863Z,17.50
2023-03-22T13:48:42.452Z,17.30
2023-03-22T13:51:14.061Z,17.30
2023-03-22T13:53:47.047Z,17.30
2023-03-22T13:56:14.375Z,17.40
2023-03-22T13:58:52.325Z,17.50
2023-03-22T14:01:22.013Z,17.50
2023-03-22T14:03:50.400Z,17.50
2023-03-22T14:06:31.776Z,17.50
2023-03-22T14:09:02.925Z,17.30
2023-03-22T14:11:38.968Z,17.30
2023-03-22T14:14:13.097Z,17.30
2023-03-22T14:16:52.426Z,17.30
2023-03-22T14:19:32.648Z,17.20
